createdAt,value
2018-08-10T00:00:52.332Z,26.53
2018-08-10T00:01:24.423Z,26.54
2018-08-10T00:01:56.493Z,26.56
2018-08-10T00:02:28.572Z,26.52
2018-08-10T00:03:00.686Z,26.45
2018-08-10T00:03:32.758Z,26.47
2018-08-10T00:04:04.845Z,26.47
2018-08-10T00:04:36.918Z,26.56
2018-08-10T00:06:28.680Z,26.49
2018-08-10T00:07:00.773Z,26.53
2018-08-10T00:07:32.873Z,26.44
2018-08-10T00:08:04.938Z,26.54
2018-08-10T00:08:36.988Z,26.5
2018-08-10T00:09:09.068Z,26.5
2018-08-10T00:09:41.170Z,26.56
2018-08-10T00:10:13.248Z,26.53
2018-08-10T00:10:45.344Z,26.53
2018-08-10T00:11:17.448Z,26.52
2018-08-10T00:11:49.561Z,26.45
2018-08-10T00:12:21.627Z,26.42
2018-08-10T00:12:53.716Z,26.47
2018-08-10T00:13:25.785Z,26.52
2018-08-10T00:13:57.874Z,26.5
2018-08-10T00:14:29.967Z,26.52
2018-08-10T00:16:21.429Z,26.39
2018-08-10T00:18:13.166Z,26.38
2018-08-10T00:18:45.242Z,26.42
2018-08-10T00:19:17.342Z,26.37
2018-08-10T00:19:49.453Z,26.5
2018-08-10T00:20:21.537Z,26.45
2018-08-10T00:20:53.605Z,26.44
2018-08-10T00:21:25.710Z,26.37
2018-08-10T00:21:57.798Z,26.38
2018-08-10T00:22:29.916Z,26.41
2018-08-10T00:23:01.995Z,26.45
2018-08-10T00:24:53.437Z,26.38
2018-08-10T00:25:25.541Z,26.35
2018-08-10T00:25:57.606Z,26.34
2018-08-10T00:26:29.689Z,26.41
2018-08-10T00:27:01.761Z,26.37
2018-08-10T00:27:33.853Z,26.34
2018-08-10T00:28:05.940Z,26.34
2018-08-10T00:28:38.024Z,26.35
2018-08-10T00:29:10.098Z,26.49
2018-08-10T00:29:42.184Z,26.32
2018-08-10T00:30:14.278Z,26.3
2018-08-10T00:30:46.355Z,26.35
2018-08-10T00:31:18.447Z,26.35
2018-08-10T00:31:50.528Z,26.38
2018-08-10T00:32:22.630Z,26.34
2018-08-10T00:32:54.719Z,26.44
2018-08-10T00:33:26.813Z,26.37
2018-08-10T00:35:18.360Z,26.37
2018-08-10T00:35:50.441Z,26.37
2018-08-10T00:36:22.525Z,26.41
2018-08-10T00:36:54.617Z,26.34
2018-08-10T00:37:26.700Z,26.31
2018-08-10T00:37:58.780Z,26.35
2018-08-10T00:38:30.867Z,26.34
2018-08-10T00:39:02.938Z,26.31
2018-08-10T00:39:35.028Z,26.38
2018-08-10T00:40:07.111Z,26.41
2018-08-10T00:40:39.208Z,26.38
2018-08-10T00:42:30.872Z,26.32
2018-08-10T00:43:02.992Z,26.35
2018-08-10T00:43:35.099Z,26.37
2018-08-10T00:45:26.672Z,26.35
2018-08-10T00:45:58.753Z,26.32
2018-08-10T00:47:50.279Z,26.3
2018-08-10T00:48:22.377Z,26.27
2018-08-10T00:48:54.458Z,26.3
2018-08-10T00:49:26.548Z,26.32
2018-08-10T00:49:58.607Z,26.37
2018-08-10T00:50:30.691Z,26.32
2018-08-10T00:52:22.454Z,26.3
2018-08-10T00:54:14.201Z,26.26
2018-08-10T00:54:46.293Z,26.23
2018-08-10T00:55:18.381Z,26.27
2018-08-10T00:55:50.473Z,26.23
2018-08-10T00:56:22.546Z,26.31
2018-08-10T00:56:54.630Z,26.23
2018-08-10T00:57:26.708Z,26.22
2018-08-10T00:57:58.773Z,26.27
2018-08-10T00:59:50.125Z,26.23
2018-08-10T01:00:22.223Z,26.23
2018-08-10T01:00:54.285Z,26.24
2018-08-10T01:01:26.379Z,26.24
2018-08-10T01:01:58.476Z,26.24
2018-08-10T01:02:30.571Z,26.23
2018-08-10T01:03:02.649Z,26.31
2018-08-10T01:03:34.742Z,26.22
2018-08-10T01:04:06.835Z,26.27
2018-08-10T01:04:38.921Z,26.22
2018-08-10T01:05:11.022Z,26.24
2018-08-10T01:05:43.114Z,26.26
2018-08-10T01:06:15.186Z,26.23
2018-08-10T01:06:47.278Z,26.26
2018-08-10T01:07:19.357Z,26.26
2018-08-10T01:07:51.432Z,26.23
2018-08-10T01:08:23.530Z,26.23
2018-08-10T01:08:55.609Z,26.27
2018-08-10T01:09:27.722Z,26.24
2018-08-10T01:09:59.819Z,26.23
2018-08-10T01:10:31.908Z,26.31
2018-08-10T01:11:04.007Z,26.23
2018-08-10T01:11:36.090Z,26.2
2018-08-10T01:12:08.208Z,26.3
2018-08-10T01:12:40.291Z,26.31
2018-08-10T01:13:12.486Z,26.3
2018-08-10T01:13:44.474Z,26.19
2018-08-10T01:14:16.567Z,26.24
2018-08-10T01:14:48.651Z,26.19
2018-08-10T01:15:20.742Z,26.34
2018-08-10T01:15:52.830Z,26.31
2018-08-10T01:16:24.920Z,26.27
2018-08-10T01:16:57.025Z,26.24
2018-08-10T01:17:29.114Z,26.24
2018-08-10T01:18:01.190Z,26.22
2018-08-10T01:18:33.271Z,26.26
2018-08-10T01:19:05.386Z,26.22
2018-08-10T01:19:37.461Z,26.24
2018-08-10T01:21:28.885Z,26.17
2018-08-10T01:23:20.487Z,26.07
2018-08-10T01:23:52.562Z,26.16
2018-08-10T01:24:24.674Z,26.12
2018-08-10T01:24:56.775Z,26.11
2018-08-10T01:25:28.877Z,26.12
2018-08-10T01:27:20.306Z,26.16
2018-08-10T01:27:52.420Z,26.07
2018-08-10T01:28:24.589Z,26.16
2018-08-10T01:28:56.699Z,26.11
2018-08-10T01:29:28.667Z,26.17
2018-08-10T01:30:00.759Z,26.17
2018-08-10T01:30:32.836Z,26.09
2018-08-10T01:32:24.400Z,26.16
2018-08-10T01:32:56.505Z,26.17
2018-08-10T01:33:28.582Z,26.11
2018-08-10T01:34:00.687Z,26.12
2018-08-10T01:35:52.203Z,26.16
2018-08-10T01:36:24.276Z,26.09
2018-08-10T01:38:15.646Z,26.01
2018-08-10T01:38:47.753Z,26.11
2018-08-10T01:39:19.842Z,26.09
2018-08-10T01:39:51.950Z,26.12
2018-08-10T01:40:24.043Z,26.11
2018-08-10T01:40:56.134Z,26.15
2018-08-10T01:41:28.221Z,26.15
2018-08-10T01:42:00.315Z,26.06
2018-08-10T01:42:32.398Z,26.09
2018-08-10T01:43:04.478Z,26.09
2018-08-10T01:43:36.574Z,26.06
2018-08-10T01:44:08.636Z,26.12
2018-08-10T01:44:40.774Z,26.12
2018-08-10T01:45:12.821Z,26.06
2018-08-10T01:45:44.885Z,26.15
2018-08-10T01:46:16.959Z,26.04
2018-08-10T01:46:49.038Z,26.04
2018-08-10T01:47:21.129Z,26.07
2018-08-10T01:47:53.216Z,26.01
2018-08-10T01:48:25.269Z,25.99
2018-08-10T01:48:57.335Z,26.06
2018-08-10T01:49:29.436Z,26.07
2018-08-10T01:50:01.544Z,25.99
2018-08-10T01:50:33.629Z,25.94
2018-08-10T01:51:05.732Z,25.99
2018-08-10T01:51:37.827Z,25.97
2018-08-10T01:52:09.933Z,26.01
2018-08-10T01:52:42.003Z,26.01
2018-08-10T01:54:33.660Z,25.97
2018-08-10T01:55:05.758Z,25.96
2018-08-10T01:55:37.833Z,26.01
2018-08-10T01:56:09.931Z,25.97
2018-08-10T01:56:42.013Z,26.04
2018-08-10T01:57:14.084Z,26.03
2018-08-10T01:57:46.162Z,26.01
2018-08-10T01:58:18.262Z,25.96
2018-08-10T01:58:50.339Z,25.97
2018-08-10T01:59:22.398Z,26
2018-08-10T01:59:54.480Z,25.99
2018-08-10T02:00:26.580Z,26.03
2018-08-10T02:00:58.636Z,25.97
2018-08-10T02:01:30.737Z,26.01
2018-08-10T02:02:02.833Z,26.04
2018-08-10T02:05:13.835Z,25.93
2018-08-10T02:07:05.494Z,25.91
2018-08-10T02:07:37.582Z,25.96
2018-08-10T02:09:29.218Z,25.93
2018-08-10T02:10:01.303Z,25.94
2018-08-10T02:10:33.402Z,25.89
2018-08-10T02:12:25.008Z,25.88
2018-08-10T02:12:57.086Z,25.85
2018-08-10T02:13:29.183Z,25.86
2018-08-10T02:14:01.266Z,25.86
2018-08-10T02:14:33.369Z,25.86
2018-08-10T02:15:05.454Z,25.89
2018-08-10T02:15:37.568Z,25.86
2018-08-10T02:16:09.666Z,25.86
2018-08-10T02:16:41.756Z,25.91
2018-08-10T02:17:13.817Z,25.85
2018-08-10T02:17:45.917Z,25.85
2018-08-10T02:18:18.016Z,25.86
2018-08-10T02:18:50.073Z,25.82
2018-08-10T02:19:22.150Z,25.88
2018-08-10T02:19:54.253Z,25.88
2018-08-10T02:20:26.325Z,25.76
2018-08-10T02:20:58.399Z,25.86
2018-08-10T02:21:30.496Z,25.84
2018-08-10T02:22:02.573Z,25.89
2018-08-10T02:22:34.641Z,25.85
2018-08-10T02:24:26.344Z,25.85
2018-08-10T02:26:17.756Z,25.79
2018-08-10T02:26:49.835Z,25.84
2018-08-10T02:27:21.916Z,25.88
2018-08-10T02:29:13.430Z,25.79
2018-08-10T02:31:04.846Z,25.78
2018-08-10T02:31:36.921Z,25.78
2018-08-10T02:33:28.274Z,25.79
2018-08-10T02:34:00.373Z,25.78
2018-08-10T02:34:32.480Z,25.81
2018-08-10T02:36:24.268Z,25.79
2018-08-10T02:36:56.346Z,25.84
2018-08-10T02:37:28.441Z,25.78
2018-08-10T02:38:00.523Z,25.81
2018-08-10T02:38:32.615Z,25.78
2018-08-10T02:39:04.689Z,25.74
2018-08-10T02:39:36.787Z,25.79
2018-08-10T02:40:08.879Z,25.76
2018-08-10T02:40:40.965Z,25.74
2018-08-10T02:41:13.048Z,25.78
2018-08-10T02:41:45.144Z,25.71
2018-08-10T02:42:17.238Z,25.66
2018-08-10T02:42:49.319Z,25.7
2018-08-10T02:43:21.406Z,25.75
2018-08-10T02:43:53.502Z,25.76
2018-08-10T02:44:25.590Z,25.79
2018-08-10T02:44:57.672Z,25.82
2018-08-10T02:45:29.770Z,25.74
2018-08-10T02:46:01.877Z,25.76
2018-08-10T02:46:33.968Z,25.7
2018-08-10T02:47:06.036Z,25.75
2018-08-10T02:47:38.148Z,25.7
2018-08-10T02:48:10.221Z,25.75
2018-08-10T02:48:42.293Z,25.71
2018-08-10T02:49:14.368Z,25.71
2018-08-10T02:51:05.942Z,25.7
2018-08-10T02:51:38.012Z,25.71
2018-08-10T02:52:10.101Z,25.74
2018-08-10T02:52:42.178Z,25.74
2018-08-10T02:53:14.284Z,25.69
2018-08-10T02:53:46.392Z,25.71
2018-08-10T02:56:56.955Z,25.59
2018-08-10T02:57:29.043Z,25.69
2018-08-10T02:58:01.143Z,25.64
2018-08-10T02:58:33.250Z,25.54
2018-08-10T02:59:05.338Z,25.69
2018-08-10T02:59:37.452Z,25.66
2018-08-10T03:00:09.547Z,25.69
2018-08-10T03:00:41.648Z,25.56
2018-08-10T03:01:13.705Z,25.63
2018-08-10T03:01:45.793Z,25.59
2018-08-10T03:02:17.899Z,25.59
2018-08-10T03:02:49.997Z,25.64
2018-08-10T03:03:22.081Z,25.51
2018-08-10T03:03:54.188Z,25.52
2018-08-10T03:04:26.270Z,25.57
2018-08-10T03:06:18.042Z,25.66
2018-08-10T03:06:50.148Z,25.6
2018-08-10T03:07:22.243Z,25.56
2018-08-10T03:07:54.329Z,25.6
2018-08-10T03:08:26.402Z,25.64
2018-08-10T03:08:58.477Z,25.67
2018-08-10T03:09:30.559Z,25.52
2018-08-10T03:10:02.658Z,25.49
2018-08-10T03:10:34.700Z,25.62
2018-08-10T03:11:06.771Z,25.52
2018-08-10T03:11:38.851Z,25.56
2018-08-10T03:12:10.945Z,25.63
2018-08-10T03:12:43.014Z,25.54
2018-08-10T03:13:15.112Z,25.62
2018-08-10T03:13:47.188Z,25.6
2018-08-10T03:14:19.289Z,25.56
2018-08-10T03:14:51.360Z,25.6
2018-08-10T03:15:23.464Z,25.63
2018-08-10T03:15:55.556Z,25.57
2018-08-10T03:17:46.943Z,25.54
2018-08-10T03:19:38.377Z,25.52
2018-08-10T03:21:30.042Z,25.48
2018-08-10T03:22:02.189Z,25.44
2018-08-10T03:22:34.221Z,25.51
2018-08-10T03:24:25.550Z,25.41
2018-08-10T03:24:57.654Z,25.47
2018-08-10T03:25:29.736Z,25.45
2018-08-10T03:26:01.816Z,25.47
2018-08-10T03:26:33.893Z,25.41
2018-08-10T03:27:06.016Z,25.45
2018-08-10T03:27:38.087Z,25.41
2018-08-10T03:28:10.194Z,25.45
2018-08-10T03:28:42.283Z,25.42
2018-08-10T03:29:14.351Z,25.42
2018-08-10T03:31:06.054Z,25.38
2018-08-10T03:31:38.133Z,25.44
2018-08-10T03:32:10.197Z,25.45
2018-08-10T03:32:42.281Z,25.41
2018-08-10T03:33:14.349Z,25.41
2018-08-10T03:33:46.461Z,25.38
2018-08-10T03:34:18.552Z,25.44
2018-08-10T03:34:50.651Z,25.44
2018-08-10T03:35:22.698Z,25.41
2018-08-10T03:35:54.811Z,25.47
2018-08-10T03:36:26.898Z,25.44
2018-08-10T03:36:58.965Z,25.41
2018-08-10T03:37:31.048Z,25.38
2018-08-10T03:38:03.095Z,25.37
2018-08-10T03:38:35.179Z,25.39
2018-08-10T03:39:07.305Z,25.44
2018-08-10T03:40:58.975Z,25.33
2018-08-10T03:41:31.048Z,25.42
2018-08-10T03:42:03.093Z,25.32
2018-08-10T03:42:35.180Z,25.34
2018-08-10T03:44:26.478Z,25.37
2018-08-10T03:46:17.876Z,25.32
2018-08-10T03:46:49.924Z,25.38
2018-08-10T03:48:41.732Z,25.32
2018-08-10T03:49:13.823Z,25.45
2018-08-10T03:49:45.971Z,25.38
2018-08-10T03:50:18.004Z,25.38
2018-08-10T03:50:50.076Z,25.33
2018-08-10T03:51:22.177Z,25.37
2018-08-10T03:51:54.278Z,25.33
2018-08-10T03:52:26.354Z,25.3
2018-08-10T03:52:58.454Z,25.34
2018-08-10T03:53:30.518Z,25.32
2018-08-10T03:54:02.618Z,25.3
2018-08-10T03:54:34.739Z,25.39
2018-08-10T03:55:06.801Z,25.37
2018-08-10T03:55:38.877Z,25.32
2018-08-10T03:56:10.973Z,25.34
2018-08-10T03:56:43.065Z,25.29
2018-08-10T03:58:34.482Z,25.32
2018-08-10T03:59:06.562Z,25.33
2018-08-10T03:59:38.667Z,25.32
2018-08-10T04:00:10.736Z,25.32
2018-08-10T04:00:42.837Z,25.3
2018-08-10T04:01:14.893Z,25.27
2018-08-10T04:03:06.405Z,25.23
2018-08-10T04:03:38.500Z,25.22
2018-08-10T04:04:10.571Z,25.3
2018-08-10T04:04:42.659Z,25.29
2018-08-10T04:06:34.321Z,25.24
2018-08-10T04:07:06.398Z,25.26
2018-08-10T04:07:38.492Z,25.26
2018-08-10T04:09:30.246Z,25.26
2018-08-10T04:10:02.301Z,25.23
2018-08-10T04:10:34.375Z,25.22
2018-08-10T04:11:06.466Z,25.23
2018-08-10T04:12:57.984Z,25.27
2018-08-10T04:13:30.072Z,25.22
2018-08-10T04:14:02.159Z,25.2
2018-08-10T04:14:34.231Z,25.27
2018-08-10T04:15:06.304Z,25.24
2018-08-10T04:15:38.402Z,25.19
2018-08-10T04:16:10.504Z,25.15
2018-08-10T04:16:42.589Z,25.22
2018-08-10T04:17:14.683Z,25.14
2018-08-10T04:17:46.765Z,25.19
2018-08-10T04:18:18.846Z,25.19
2018-08-10T04:18:50.951Z,25.24
2018-08-10T04:19:23.021Z,25.22
2018-08-10T04:19:55.119Z,25.14
2018-08-10T04:20:27.200Z,25.22
2018-08-10T04:20:59.284Z,25.19
2018-08-10T04:21:31.391Z,25.23
2018-08-10T04:22:03.482Z,25.23
2018-08-10T04:22:35.583Z,25.15
2018-08-10T04:23:07.677Z,25.22
2018-08-10T04:23:39.768Z,25.19
2018-08-10T04:24:11.845Z,25.22
2018-08-10T04:24:43.913Z,25.17
2018-08-10T04:25:16.004Z,25.15
2018-08-10T04:25:48.105Z,25.19
2018-08-10T04:26:20.197Z,25.15
2018-08-10T04:28:11.932Z,25.09
2018-08-10T04:28:43.990Z,25.14
2018-08-10T04:29:16.101Z,25.17
2018-08-10T04:31:07.833Z,25.14
2018-08-10T04:31:39.940Z,25.15
2018-08-10T04:32:12.006Z,25.15
2018-08-10T04:32:44.090Z,25.17
2018-08-10T04:33:16.151Z,25.2
2018-08-10T04:35:07.507Z,25.15
2018-08-10T04:35:39.592Z,25.14
2018-08-10T04:36:11.682Z,25.12
2018-08-10T04:36:43.737Z,25.17
2018-08-10T04:37:15.827Z,25.12
2018-08-10T04:37:47.910Z,25.14
2018-08-10T04:38:23.844Z,25.17
2018-08-10T04:38:55.884Z,25.08
2018-08-10T04:39:27.974Z,25.15
2018-08-10T04:40:00.058Z,25.19
2018-08-10T04:40:32.169Z,25.11
2018-08-10T04:41:04.258Z,25.09
2018-08-10T04:41:36.351Z,25.07
2018-08-10T04:42:08.431Z,25.08
2018-08-10T04:42:40.486Z,25.11
2018-08-10T04:43:12.569Z,25.11
2018-08-10T04:43:44.660Z,25.15
2018-08-10T04:44:16.753Z,25.12
2018-08-10T04:44:48.829Z,25.07
2018-08-10T04:45:20.933Z,25.14
2018-08-10T04:45:53.006Z,25.08
2018-08-10T04:46:25.094Z,25.15
2018-08-10T04:46:57.192Z,25.11
2018-08-10T04:47:29.269Z,25.12
2018-08-10T04:48:01.378Z,25.11
2018-08-10T04:48:33.530Z,25.14
2018-08-10T04:49:05.626Z,25.09
2018-08-10T04:49:37.719Z,25.12
2018-08-10T04:50:09.803Z,25.12
2018-08-10T04:50:41.902Z,25.09
2018-08-10T04:51:13.997Z,25.04
2018-08-10T04:51:46.096Z,25.11
2018-08-10T04:53:37.597Z,25.04
2018-08-10T04:54:09.646Z,25.05
2018-08-10T04:56:01.385Z,25.02
2018-08-10T04:56:33.460Z,25.07
2018-08-10T04:57:05.570Z,25.11
2018-08-10T04:57:37.644Z,25.08
2018-08-10T04:58:09.742Z,25.02
2018-08-10T05:00:01.274Z,25.07
2018-08-10T05:00:33.359Z,25.12
2018-08-10T05:01:05.409Z,25.07
2018-08-10T05:01:37.484Z,25.04
2018-08-10T05:02:09.627Z,25.08
2018-08-10T05:02:41.735Z,25.05
2018-08-10T05:03:13.817Z,25.05
2018-08-10T05:03:45.976Z,25.02
2018-08-10T05:05:37.278Z,25.01
2018-08-10T05:06:09.354Z,25.09
2018-08-10T05:06:41.432Z,25.04
2018-08-10T05:07:13.520Z,25.09
2018-08-10T05:07:45.592Z,25.04
2018-08-10T05:08:17.681Z,25.09
2018-08-10T05:08:49.776Z,25.09
2018-08-10T05:09:21.873Z,25.09
2018-08-10T05:09:53.977Z,25.04
2018-08-10T05:10:26.054Z,25.05
2018-08-10T05:10:58.146Z,25.08
2018-08-10T05:11:30.214Z,25.07
2018-08-10T05:12:02.297Z,25.09
2018-08-10T05:12:34.361Z,25.08
2018-08-10T05:13:06.410Z,25.07
2018-08-10T05:14:57.950Z,25.09
2018-08-10T05:16:49.615Z,25.04
2018-08-10T05:17:21.700Z,25.08
2018-08-10T05:17:53.785Z,25.04
2018-08-10T05:18:25.870Z,25.11
2018-08-10T05:18:57.950Z,25.05
2018-08-10T05:19:30.012Z,25.04
2018-08-10T05:20:02.085Z,25.11
2018-08-10T05:20:34.177Z,25.11
2018-08-10T05:22:25.871Z,25.08
2018-08-10T05:22:57.959Z,25.11
2018-08-10T05:23:30.043Z,25.11
2018-08-10T05:24:02.132Z,25.07
2018-08-10T05:25:53.685Z,25.12
2018-08-10T05:26:25.715Z,25.11
2018-08-10T05:26:57.784Z,25.15
2018-08-10T05:27:29.864Z,25.11
2018-08-10T05:28:01.908Z,25.11
2018-08-10T05:28:34.007Z,25.12
2018-08-10T05:29:06.094Z,25.08
2018-08-10T05:29:38.164Z,25.12
2018-08-10T05:31:29.945Z,25.11
2018-08-10T05:32:01.993Z,25.12
2018-08-10T05:32:34.034Z,25.15
2018-08-10T05:33:06.069Z,25.11
2018-08-10T05:33:38.163Z,25.07
2018-08-10T05:34:10.237Z,25.15
2018-08-10T05:34:42.318Z,25.12
2018-08-10T05:35:14.399Z,25.17
2018-08-10T05:37:06.054Z,25.2
2018-08-10T05:37:38.141Z,25.2
2018-08-10T05:38:10.225Z,25.22
2018-08-10T05:38:42.331Z,25.2
2018-08-10T05:39:14.605Z,25.24
2018-08-10T05:39:50.636Z,25.2
2018-08-10T05:40:22.734Z,25.32
2018-08-10T05:40:54.840Z,25.27
2018-08-10T05:41:26.886Z,25.33
2018-08-10T05:41:59.004Z,25.33
2018-08-10T05:42:33.604Z,25.29
2018-08-10T05:43:05.665Z,25.33
2018-08-10T05:43:37.700Z,25.38
2018-08-10T05:44:09.849Z,25.27
2018-08-10T05:44:41.808Z,25.34
2018-08-10T05:45:13.926Z,25.41
2018-08-10T05:45:45.980Z,25.44
2018-08-10T05:46:18.005Z,25.39
2018-08-10T05:46:50.082Z,25.45
2018-08-10T05:47:22.215Z,25.38
2018-08-10T05:47:54.248Z,25.48
2018-08-10T05:48:26.312Z,25.42
2018-08-10T05:48:58.332Z,25.45
2018-08-10T05:49:30.379Z,25.54
2018-08-10T05:50:02.529Z,25.57
2018-08-10T05:50:34.530Z,25.47
2018-08-10T05:51:06.590Z,25.49
2018-08-10T05:51:38.642Z,25.59
2018-08-10T05:52:10.633Z,25.63
2018-08-10T05:52:42.705Z,25.52
2018-08-10T05:53:14.765Z,25.56
2018-08-10T05:53:46.784Z,25.56
2018-08-10T05:54:18.822Z,25.64
2018-08-10T05:54:50.897Z,25.6
2018-08-10T05:55:23.869Z,25.67
2018-08-10T05:55:55.915Z,25.64
2018-08-10T05:56:27.971Z,25.67
2018-08-10T05:57:00.021Z,25.74
2018-08-10T05:57:32.246Z,25.7
2018-08-10T05:58:04.737Z,25.76
2018-08-10T05:58:36.793Z,25.79
2018-08-10T05:59:08.874Z,25.74
2018-08-10T05:59:40.911Z,25.76
2018-08-10T06:00:12.990Z,25.71
2018-08-10T06:00:45.024Z,25.76
2018-08-10T06:01:17.098Z,25.78
2018-08-10T06:01:49.127Z,25.79
2018-08-10T06:02:21.197Z,25.79
2018-08-10T06:02:53.230Z,25.84
2018-08-10T06:03:25.354Z,25.86
2018-08-10T06:03:57.507Z,25.85
2018-08-10T06:04:29.787Z,25.82
2018-08-10T06:05:01.827Z,25.85
2018-08-10T06:05:33.973Z,25.99
2018-08-10T06:06:06.025Z,25.96
2018-08-10T06:06:38.104Z,25.94
2018-08-10T06:07:10.138Z,25.96
2018-08-10T06:07:42.202Z,25.97
2018-08-10T06:08:14.259Z,25.93
2018-08-10T06:08:46.280Z,26.04
2018-08-10T06:09:18.404Z,25.96
2018-08-10T06:09:50.468Z,26.09
2018-08-10T06:10:22.621Z,26.12
2018-08-10T06:10:54.664Z,26.16
2018-08-10T06:11:26.750Z,26.11
2018-08-10T06:11:58.826Z,26.15
2018-08-10T06:12:31.012Z,26.09
2018-08-10T06:13:03.170Z,26.17
2018-08-10T06:13:35.371Z,26.2
2018-08-10T06:14:07.371Z,26.27
2018-08-10T06:14:39.458Z,26.2
2018-08-10T06:15:11.512Z,26.27
2018-08-10T06:15:43.526Z,26.23
2018-08-10T06:16:15.655Z,26.26
2018-08-10T06:16:47.712Z,26.23
2018-08-10T06:17:19.754Z,26.23
2018-08-10T06:17:51.770Z,26.24
2018-08-10T06:18:23.841Z,26.32
2018-08-10T06:18:55.861Z,26.32
2018-08-10T06:19:27.987Z,26.32
2018-08-10T06:20:00.113Z,26.31
2018-08-10T06:20:32.554Z,26.39
2018-08-10T06:21:04.617Z,26.41
2018-08-10T06:21:36.809Z,26.3
2018-08-10T06:22:08.815Z,26.27
2018-08-10T06:22:40.880Z,26.41
2018-08-10T06:23:12.911Z,26.39
2018-08-10T06:23:44.973Z,26.47
2018-08-10T06:24:17.082Z,26.52
2018-08-10T06:24:49.181Z,26.45
2018-08-10T06:25:21.267Z,26.54
2018-08-10T06:25:53.300Z,26.49
2018-08-10T06:26:25.348Z,26.57
2018-08-10T06:26:57.378Z,26.54
2018-08-10T06:27:29.385Z,26.68
2018-08-10T06:28:01.441Z,26.57
2018-08-10T06:28:33.524Z,26.59
2018-08-10T06:29:05.680Z,26.61
2018-08-10T06:29:38.666Z,26.61
2018-08-10T06:30:10.732Z,26.6
2018-08-10T06:30:43.461Z,26.74
2018-08-10T06:31:15.482Z,26.67
2018-08-10T06:31:47.581Z,26.74
2018-08-10T06:32:19.632Z,26.75
2018-08-10T06:32:51.661Z,26.74
2018-08-10T06:33:23.730Z,26.79
2018-08-10T06:33:56.027Z,26.79
2018-08-10T06:34:27.913Z,26.75
2018-08-10T06:34:59.973Z,26.81
2018-08-10T06:35:32.015Z,26.82
2018-08-10T06:36:04.067Z,26.86
2018-08-10T06:36:36.144Z,26.91
2018-08-10T06:37:08.205Z,26.87
2018-08-10T06:37:40.426Z,26.91
2018-08-10T06:38:12.534Z,26.87
2018-08-10T06:38:44.568Z,26.94
2018-08-10T06:39:16.639Z,26.9
2018-08-10T06:39:48.719Z,27.01
2018-08-10T06:40:20.741Z,27.04
2018-08-10T06:40:52.836Z,27.04
2018-08-10T06:41:24.910Z,27.05
2018-08-10T06:41:57.032Z,26.99
2018-08-10T06:42:29.070Z,27.08
2018-08-10T06:43:01.101Z,27.08
2018-08-10T06:43:33.132Z,27.12
2018-08-10T06:44:05.192Z,27.13
2018-08-10T06:44:37.233Z,27.12
2018-08-10T06:45:09.278Z,27.21
2018-08-10T06:45:41.405Z,27.24
2018-08-10T06:46:13.472Z,27.23
2018-08-10T06:46:45.547Z,27.23
2018-08-10T06:47:17.640Z,27.3
2018-08-10T06:47:49.716Z,27.3
2018-08-10T06:48:21.845Z,27.33
2018-08-10T06:48:53.904Z,27.28
2018-08-10T06:49:25.946Z,27.28
2018-08-10T06:49:57.974Z,27.36
2018-08-10T06:50:30.692Z,27.38
2018-08-10T06:51:02.747Z,27.45
2018-08-10T06:51:34.836Z,27.43
2018-08-10T06:52:06.873Z,27.43
2018-08-10T06:52:39.061Z,27.38
2018-08-10T06:53:11.240Z,27.45
2018-08-10T06:53:43.420Z,27.53
2018-08-10T06:54:15.429Z,27.52
2018-08-10T06:54:47.506Z,27.55
2018-08-10T06:55:19.588Z,27.57
2018-08-10T06:55:51.817Z,27.53
2018-08-10T06:56:24.325Z,27.57
2018-08-10T06:56:56.330Z,27.59
2018-08-10T06:57:28.426Z,27.59
2018-08-10T06:58:00.527Z,27.57
2018-08-10T06:58:32.571Z,27.61
2018-08-10T06:59:04.629Z,27.66
2018-08-10T06:59:36.693Z,27.71
2018-08-10T07:00:08.740Z,27.69
2018-08-10T07:00:40.909Z,27.69
2018-08-10T07:01:13.030Z,27.9
2018-08-10T07:01:45.156Z,27.76
2018-08-10T07:02:17.211Z,27.8
2018-08-10T07:02:49.256Z,27.86
2018-08-10T07:03:21.323Z,27.86
2018-08-10T07:03:53.372Z,27.89
2018-08-10T07:04:25.604Z,27.91
2018-08-10T07:04:57.755Z,27.89
2018-08-10T07:05:29.828Z,27.93
2018-08-10T07:06:01.899Z,27.91
2018-08-10T07:06:33.983Z,27.94
2018-08-10T07:07:06.007Z,28.02
2018-08-10T07:07:38.907Z,28.08
2018-08-10T07:08:10.971Z,27.98
2018-08-10T07:08:43.014Z,28.03
2018-08-10T07:09:15.189Z,28.01
2018-08-10T07:09:47.345Z,28.02
2018-08-10T07:10:19.348Z,28.05
2018-08-10T07:10:51.408Z,28.14
2018-08-10T07:11:23.537Z,28.05
2018-08-10T07:11:55.589Z,28.02
2018-08-10T07:12:27.659Z,28.14
2018-08-10T07:12:59.731Z,28.14
2018-08-10T07:13:31.866Z,28.18
2018-08-10T07:14:03.884Z,28.2
2018-08-10T07:14:35.868Z,28.31
2018-08-10T07:15:07.887Z,28.17
2018-08-10T07:15:39.949Z,28.21
2018-08-10T07:16:12.085Z,28.33
2018-08-10T07:16:44.176Z,28.35
2018-08-10T07:17:16.268Z,28.31
2018-08-10T07:17:48.399Z,28.28
2018-08-10T07:18:20.469Z,28.31
2018-08-10T07:18:52.528Z,28.36
2018-08-10T07:19:24.600Z,28.33
2018-08-10T07:19:56.621Z,28.39
2018-08-10T07:20:28.665Z,28.49
2018-08-10T07:21:00.738Z,28.39
2018-08-10T07:21:33.507Z,28.42
2018-08-10T07:22:05.620Z,28.49
2018-08-10T07:22:37.693Z,28.42
2018-08-10T07:23:09.731Z,28.49
2018-08-10T07:23:41.775Z,28.54
2018-08-10T07:24:13.921Z,28.45
2018-08-10T07:24:45.989Z,28.53
2018-08-10T07:25:18.056Z,28.48
2018-08-10T07:25:50.079Z,28.53
2018-08-10T07:26:22.115Z,28.61
2018-08-10T07:26:54.157Z,28.45
2018-08-10T07:27:26.196Z,28.54
2018-08-10T07:27:58.244Z,28.55
2018-08-10T07:28:30.301Z,28.55
2018-08-10T07:29:02.351Z,28.61
2018-08-10T07:29:34.436Z,28.6
2018-08-10T07:30:06.488Z,28.68
2018-08-10T07:30:38.557Z,28.61
2018-08-10T07:31:10.565Z,28.73
2018-08-10T07:31:42.577Z,28.7
2018-08-10T07:32:14.608Z,28.63
2018-08-10T07:32:46.691Z,28.65
2018-08-10T07:33:18.749Z,28.72
2018-08-10T07:33:50.813Z,28.7
2018-08-10T07:34:22.830Z,28.8
2018-08-10T07:34:54.875Z,28.79
2018-08-10T07:35:26.983Z,28.86
2018-08-10T07:35:59.109Z,28.9
2018-08-10T07:36:31.182Z,28.85
2018-08-10T07:37:03.213Z,28.78
2018-08-10T07:37:35.259Z,28.88
2018-08-10T07:38:07.388Z,28.88
2018-08-10T07:38:39.601Z,28.94
2018-08-10T07:39:11.632Z,28.95
2018-08-10T07:39:43.684Z,28.94
2018-08-10T07:40:15.731Z,28.95
2018-08-10T07:40:47.758Z,28.97
2018-08-10T07:41:19.842Z,28.94
2018-08-10T07:41:52.036Z,29.06
2018-08-10T07:42:24.262Z,29.06
2018-08-10T07:42:56.307Z,29.08
2018-08-10T07:43:28.352Z,29.02
2018-08-10T07:44:00.446Z,29.08
2018-08-10T07:44:32.549Z,29.1
2018-08-10T07:45:04.595Z,29.05
2018-08-10T07:45:36.666Z,29.15
2018-08-10T07:46:08.770Z,29.14
2018-08-10T07:46:40.818Z,29.18
2018-08-10T07:47:12.843Z,29.17
2018-08-10T07:47:44.898Z,29.21
2018-08-10T07:48:17.055Z,29.21
2018-08-10T07:48:49.080Z,29.24
2018-08-10T07:49:21.219Z,29.23
2018-08-10T07:49:53.372Z,29.26
2018-08-10T07:50:26.391Z,29.35
2018-08-10T07:50:58.409Z,29.38
2018-08-10T07:51:30.495Z,29.4
2018-08-10T07:52:02.570Z,29.33
2018-08-10T07:52:34.702Z,29.38
2018-08-10T07:53:06.802Z,29.43
2018-08-10T07:53:38.841Z,29.43
2018-08-10T07:54:10.918Z,29.43
2018-08-10T07:54:42.957Z,29.47
2018-08-10T07:55:14.961Z,29.54
2018-08-10T07:55:47.925Z,29.52
2018-08-10T07:56:20.108Z,29.45
2018-08-10T07:56:52.102Z,29.61
2018-08-10T07:57:24.151Z,29.55
2018-08-10T07:57:56.265Z,29.57
2018-08-10T07:58:28.458Z,29.66
2018-08-10T07:59:00.621Z,29.61
2018-08-10T07:59:32.758Z,29.7
2018-08-10T08:00:04.838Z,29.65
2018-08-10T08:00:36.864Z,29.7
2018-08-10T08:01:08.929Z,29.73
2018-08-10T08:01:40.931Z,29.76
2018-08-10T08:02:12.976Z,29.77
2018-08-10T08:02:45.071Z,29.79
2018-08-10T08:03:17.351Z,29.73
2018-08-10T08:03:49.541Z,29.73
2018-08-10T08:04:21.513Z,29.61
2018-08-10T08:04:53.643Z,29.58
2018-08-10T08:05:25.667Z,29.52
2018-08-10T08:05:57.715Z,29.39
2018-08-10T08:06:29.836Z,29.39
2018-08-10T08:07:02.067Z,29.32
2018-08-10T08:07:34.084Z,29.15
2018-08-10T08:08:06.198Z,29.14
2018-08-10T08:08:38.201Z,28.97
2018-08-10T08:09:10.545Z,28.86
2018-08-10T08:09:42.588Z,28.82
2018-08-10T08:10:14.740Z,28.83
2018-08-10T08:10:46.907Z,28.85
2018-08-10T08:11:19.038Z,28.7
2018-08-10T08:11:51.057Z,28.67
2018-08-10T08:12:23.116Z,28.6
2018-08-10T08:12:55.112Z,28.51
2018-08-10T08:13:27.168Z,28.43
2018-08-10T08:13:59.213Z,28.36
2018-08-10T08:14:31.265Z,28.21